Time;durP1;ratioP1;P1;durP2;ratioP2;P2;SDS_P1;SDS_P2;PMS_P1;PMS_P2;Temp;Humidity;BMP_temperature;BMP_pressure;BME280_temperature;BME280_humidity;BME280_pressure;Samples;Min_cycle;Max_cycle;Signal;HPM_P1;HPM_P2
2022/10/25 00:00:06;;;;;;;;;;;;;;;;;;349947;28;921;-67
2022/10/25 00:00:17;;;;;;;;;;;;;;;;;;349898;28;941;-66
2022/10/25 00:00:28;;;;;;;;;;;;;;;;;;349993;28;791;-66
2022/10/25 00:00:38;;;;;;;;;;;;;;;;;;349911;28;933;-67
2022/10/25 00:00:49;;;;;;;;;;;;;;;;;;349977;28;944;-66
2022/10/25 00:00:59;;;;;;;;;;;;;;;;;;349949;28;924;-66
2022/10/25 00:01:13;;;;;;;;;;;;;;;;;;349890;28;846;-66
2022/10/25 00:01:25;;;;;;;;;;;;;;;;;;349935;28;920;-66
2022/10/25 00:01:40;;;;;;;;;;;;;;;;;;349934;28;1039;-66
2022/10/25 00:01:51;;;;;;;;;;;;;;;;;;349898;28;849;-66
2022/10/25 00:02:01;;;;;;;;;;;;;;;;;;349917;28;957;-67
2022/10/25 00:02:16;;;;;;;;;;;;;;;;;;349968;28;845;-67
2022/10/25 00:02:31;;;;;;;;;;;;;;;;;;349884;28;925;-66
2022/10/25 00:02:41;;;;;;;;;;;;;;;;;;349949;28;945;-66
2022/10/25 00:02:51;;;;;;;;;;;;;;;;;;349942;28;1022;-66
2022/10/25 00:03:01;;;;;;;;;;;;;;;;;;349904;28;845;-67
2022/10/25 00:03:12;;;;;;;;;;;;;;;;;;349525;28;1577;-67
2022/10/25 00:03:22;;;;;;;;;;;;;;;;;;349952;28;1520;-67
2022/10/25 00:03:32;;;;;;;;;;;;;;;;;;349734;28;1406;-67
2022/10/25 00:03:42;;;;;;;;;;;;;;;;;;351321;28;913;-66
2022/10/25 00:03:53;;;;;;;;;;;;;;;;;;350489;28;1366;-66
2022/10/25 00:04:03;;;;;;;;;;;;;;;;;;350901;28;1637;-66
2022/10/25 00:04:14;;;;;;;;;;;;;;;;;;350494;28;1378;-66
2022/10/25 00:04:24;;;;;;;;;;;;;;;;;;351308;28;945;-67
2022/10/25 00:04:35;;;;;;;;;;;;;;;;;;351338;28;778;-66
2022/10/25 00:04:45;;;;;;;;;;;;;;;;;;351315;28;964;-66
2022/10/25 00:04:55;;;;;;;;;;;;;;;;;;351336;28;801;-66
2022/10/25 00:05:06;;;;;;;;;;;;;;;;;;351280;28;913;-66
2022/10/25 00:05:16;;;;;;;;;;;;;;;;;;351291;28;965;-66
2022/10/25 00:05:26;;;;;;;;;;;;;;;;;;351295;28;996;-67
2022/10/25 00:05:37;;;;;;;;;;;;;;;;;;351325;28;908;-66
2022/10/25 00:05:47;;;;;;;;;;;;;;;;;;351231;28;980;-66
2022/10/25 00:05:57;;;;;;;;;;;;;;;;;;351103;28;853;-67
2022/10/25 00:06:11;;;;;;;;;;;;;;;;;;351169;28;921;-66
2022/10/25 00:06:22;;;;;;;;;;;;;;;;;;351178;28;984;-67
2022/10/25 00:06:32;;;;;;;;;;;;;;;;;;351170;28;1050;-66
2022/10/25 00:06:43;;;;;;;;;;;;;;;;;;351182;28;924;-66
2022/10/25 00:06:53;;;;;;;;;;;;;;;;;;351164;28;983;-66
2022/10/25 00:07:03;;;;;;;;;;;;;;;;;;351194;28;786;-67
2022/10/25 00:07:13;;;;;;;;;;;;;;;;;;351108;28;908;-66
2022/10/25 00:07:23;;;;;;;;;;;;;;;;;;351141;28;1906;-66
2022/10/25 00:07:33;;;;;;;;;;;;;;;;;;351180;28;967;-66
2022/10/25 00:07:44;;;;;;;;;;;;;;;;;;351192;28;1062;-66
2022/10/25 00:07:54;;;;;;;;;;;;;;;;;;351167;28;782;-66
2022/10/25 00:08:04;;;;;;;;;;;;;;;;;;351117;28;928;-67
2022/10/25 00:08:14;;;;;;;;;;;;;;;;;;351169;28;976;-66
2022/10/25 00:08:25;;;;;;;;;;;;;;;;;;351381;28;838;-66
2022/10/25 00:08:35;;;;;;;;;;;;;;;;;;351303;28;995;-66
2022/10/25 00:08:45;;;;;;;;;;;;;;;;;;351361;28;869;-66
2022/10/25 00:08:55;;;;;;;;;;;;;;;;;;351351;28;949;-67
2022/10/25 00:09:06;;;;;;;;;;;;;;;;;;351356;28;798;-66
2022/10/25 00:09:16;;;;;;;;;;;;;;;;;;351233;28;1165;-66
2022/10/25 00:09:26;;;;;;;;;;;;;;;;;;351361;28;952;-67
2022/10/25 00:09:36;;;;;;;;;;;;;;;;;;351303;28;917;-66
2022/10/25 00:09:47;;;;;;;;;;;;;;;;;;351346;28;857;-66
2022/10/25 00:09:57;;;;;;;;;;;;;;;;;;351315;28;984;-66
2022/10/25 00:10:07;;;;;;;;;;;;;;;;;;351320;28;957;-66
2022/10/25 00:10:18;;;;;;;;;;;;;;;;;;351285;28;925;-66
2022/10/25 00:10:28;;;;;;;;;;;;;;;;;;351280;28;940;-66
2022/10/25 00:10:38;;;;;;;;;;;;;;;;;;351390;28;853;-66
2022/10/25 00:10:49;;;;;;;;;;;;;;;;;;351325;28;945;-66
2022/10/25 00:10:59;;;;;;;;;;;;;;;;;;351171;28;1306;-66
2022/10/25 00:11:12;;;;;;;;;;;;;;;;;;351318;28;1081;-66
2022/10/25 00:11:24;;;;;;;;;;;;;;;;;;351362;28;933;-66
2022/10/25 00:11:34;;;;;;;;;;;;;;;;;;351313;28;842;-66
2022/10/25 00:11:44;;;;;;;;;;;;;;;;;;351308;28;806;-66
2022/10/25 00:11:54;;;;;;;;;;;;;;;;;;351321;28;968;-66
2022/10/25 00:12:05;;;;;;;;;;;;;;;;;;351297;28;929;-66
2022/10/25 00:12:15;;;;;;;;;;;;;;;;;;351299;28;821;-66
2022/10/25 00:12:25;;;;;;;;;;;;;;;;;;351341;28;866;-67
2022/10/25 00:12:45;;;;;;;;;;;;;;;;;;351352;28;1031;-66
2022/10/25 00:12:55;;;;;;;;;;;;;;;;;;351346;28;979;-66
2022/10/25 00:13:05;;;;;;;;;;;;;;;;;;351281;28;1027;-66
2022/10/25 00:13:15;;;;;;;;;;;;;;;;;;351310;28;838;-66
2022/10/25 00:13:26;;;;;;;;;;;;;;;;;;351334;28;933;-66
2022/10/25 00:13:36;;;;;;;;;;;;;;;;;;351275;28;1008;-66
2022/10/25 00:13:47;;;;;;;;;;;;;;;;;;351306;28;957;-66
2022/10/25 00:13:59;;;;;;;;;;;;;;;;;;351321;28;951;-66
2022/10/25 00:14:14;;;;;;;;;;;;;;;;;;351310;28;921;-65
2022/10/25 00:14:25;;;;;;;;;;;;;;;;;;351378;28;929;-66
2022/10/25 00:14:35;;;;;;;;;;;;;;;;;;351341;28;913;-66
2022/10/25 00:14:45;;;;;;;;;;;;;;;;;;351310;28;766;-67
2022/10/25 00:14:59;;;;;;;;;;;;;;;;;;351300;28;925;-66
2022/10/25 00:15:09;;;;;;;;;;;;;;;;;;351368;28;1752;-66
2022/10/25 00:15:20;;;;;;;;;;;;;;;;;;351246;28;949;-66
2022/10/25 00:15:30;;;;;;;;;;;;;;;;;;351314;28;956;-66
2022/10/25 00:15:41;;;;;;;;;;;;;;;;;;351333;28;845;-66
2022/10/25 00:15:51;;;;;;;;;;;;;;;;;;351291;28;952;-66
2022/10/25 00:16:02;;;;;;;;;;;;;;;;;;351359;28;812;-66
2022/10/25 00:16:13;;;;;;;;;;;;;;;;;;351355;28;790;-66
2022/10/25 00:16:25;;;;;;;;;;;;;;;;;;351291;28;995;-66
2022/10/25 00:16:36;;;;;;;;;;;;;;;;;;351278;28;956;-66
2022/10/25 00:16:46;;;;;;;;;;;;;;;;;;351325;28;972;-66
2022/10/25 00:16:56;;;;;;;;;;;;;;;;;;351314;28;774;-66
2022/10/25 00:17:07;;;;;;;;;;;;;;;;;;351284;28;917;-67
2022/10/25 00:17:17;;;;;;;;;;;;;;;;;;351322;28;921;-66
2022/10/25 00:17:27;;;;;;;;;;;;;;;;;;351401;28;731;-66
2022/10/25 00:17:37;;;;;;;;;;;;;;;;;;351382;28;897;-66
2022/10/25 00:17:48;;;;;;;;;;;;;;;;;;351291;28;798;-66
2022/10/25 00:17:58;;;;;;;;;;;;;;;;;;351337;28;936;-66
2022/10/25 00:18:08;;;;;;;;;;;;;;;;;;351279;28;1067;-67
2022/10/25 00:18:18;;;;;;;;;;;;;;;;;;351349;28;809;-66
2022/10/25 00:18:28;;;;;;;;;;;;;;;;;;351217;28;913;-66
2022/10/25 00:18:38;;;;;;;;;;;;;;;;;;350579;28;1596;-66
2022/10/25 00:18:49;;;;;;;;;;;;;;;;;;350571;28;1296;-66
2022/10/25 00:18:59;;;;;;;;;;;;;;;;;;351248;28;812;-66
2022/10/25 00:19:10;;;;;;;;;;;;;;;;;;351276;28;917;-66
2022/10/25 00:19:21;;;;;;;;;;;;;;;;;;351337;28;829;-66
2022/10/25 00:19:31;;;;;;;;;;;;;;;;;;351310;28;917;-66
2022/10/25 00:19:41;;;;;;;;;;;;;;;;;;351310;28;933;-67
2022/10/25 00:19:51;;;;;;;;;;;;;;;;;;351240;28;1012;-66
2022/10/25 00:20:01;;;;;;;;;;;;;;;;;;351344;28;908;-66
2022/10/25 00:20:12;;;;;;;;;;;;;;;;;;351322;28;949;-66
2022/10/25 00:20:22;;;;;;;;;;;;;;;;;;351329;28;853;-66
2022/10/25 00:20:34;;;;;;;;;;;;;;;;;;351197;28;920;-66
2022/10/25 00:20:45;;;;;;;;;;;;;;;;;;351367;28;845;-66
2022/10/25 00:20:55;;;;;;;;;;;;;;;;;;351289;28;960;-66
2022/10/25 00:21:06;;;;;;;;;;;;;;;;;;351272;28;1160;-66
2022/10/25 00:21:16;;;;;;;;;;;;;;;;;;351361;28;909;-66
2022/10/25 00:21:26;;;;;;;;;;;;;;;;;;351247;28;972;-66
2022/10/25 00:21:36;;;;;;;;;;;;;;;;;;351337;28;1234;-66
2022/10/25 00:21:47;;;;;;;;;;;;;;;;;;351347;28;972;-66
2022/10/25 00:21:57;;;;;;;;;;;;;;;;;;351315;28;916;-66
2022/10/25 00:22:07;;;;;;;;;;;;;;;;;;351322;28;999;-66
2022/10/25 00:22:17;;;;;;;;;;;;;;;;;;351324;28;841;-66
2022/10/25 00:22:27;;;;;;;;;;;;;;;;;;350637;28;2072;-66
2022/10/25 00:22:38;;;;;;;;;;;;;;;;;;351550;28;1523;-66
2022/10/25 00:22:48;;;;;;;;;;;;;;;;;;352715;28;1049;-66
2022/10/25 00:22:58;;;;;;;;;;;;;;;;;;352750;28;929;-66
2022/10/25 00:23:08;;;;;;;;;;;;;;;;;;352698;28;956;-66
2022/10/25 00:23:19;;;;;;;;;;;;;;;;;;352748;28;777;-66
2022/10/25 00:23:29;;;;;;;;;;;;;;;;;;352682;28;909;-66
2022/10/25 00:23:39;;;;;;;;;;;;;;;;;;352712;28;995;-66
2022/10/25 00:23:50;;;;;;;;;;;;;;;;;;352690;28;940;-66
2022/10/25 00:24:00;;;;;;;;;;;;;;;;;;352685;28;932;-66
2022/10/25 00:24:11;;;;;;;;;;;;;;;;;;352741;28;904;-66
2022/10/25 00:24:21;;;;;;;;;;;;;;;;;;352591;28;1537;-66
2022/10/25 00:24:31;;;;;;;;;;;;;;;;;;351536;28;2011;-67
2022/10/25 00:24:41;;;;;;;;;;;;;;;;;;352686;28;797;-66
2022/10/25 00:24:52;;;;;;;;;;;;;;;;;;352694;28;1058;-66
2022/10/25 00:25:02;;;;;;;;;;;;;;;;;;352693;28;999;-67
2022/10/25 00:25:12;;;;;;;;;;;;;;;;;;352728;28;900;-66
2022/10/25 00:25:23;;;;;;;;;;;;;;;;;;352687;28;924;-66
2022/10/25 00:25:33;;;;;;;;;;;;;;;;;;352699;28;805;-66
2022/10/25 00:25:43;;;;;;;;;;;;;;;;;;352691;28;916;-66
2022/10/25 00:26:03;;;;;;;;;;;;;;;;;;352748;28;901;-66
2022/10/25 00:26:13;;;;;;;;;;;;;;;;;;352688;28;932;-66
2022/10/25 00:26:24;;;;;;;;;;;;;;;;;;351858;28;1536;-66
2022/10/25 00:26:34;;;;;;;;;;;;;;;;;;351031;28;905;-65
2022/10/25 00:26:44;;;;;;;;;;;;;;;;;;351306;28;928;-66
2022/10/25 00:26:55;;;;;;;;;;;;;;;;;;351253;28;966;-66
2022/10/25 00:27:05;;;;;;;;;;;;;;;;;;351352;28;952;-66
2022/10/25 00:27:15;;;;;;;;;;;;;;;;;;351318;28;888;-66
2022/10/25 00:27:25;;;;;;;;;;;;;;;;;;351260;28;1886;-65
2022/10/25 00:27:36;;;;;;;;;;;;;;;;;;351235;28;773;-66
2022/10/25 00:27:46;;;;;;;;;;;;;;;;;;351354;28;972;-66
2022/10/25 00:27:57;;;;;;;;;;;;;;;;;;351292;28;921;-66
2022/10/25 00:28:07;;;;;;;;;;;;;;;;;;351318;28;904;-66
2022/10/25 00:28:17;;;;;;;;;;;;;;;;;;351300;28;926;-66
2022/10/25 00:28:27;;;;;;;;;;;;;;;;;;351340;28;979;-66
2022/10/25 00:28:38;;;;;;;;;;;;;;;;;;351231;28;976;-66
2022/10/25 00:28:51;;;;;;;;;;;;;;;;;;351331;28;952;-66
2022/10/25 00:29:01;;;;;;;;;;;;;;;;;;351256;28;976;-66
2022/10/25 00:29:11;;;;;;;;;;;;;;;;;;351334;28;844;-66
2022/10/25 00:29:21;;;;;;;;;;;;;;;;;;351272;28;992;-66
2022/10/25 00:29:31;;;;;;;;;;;;;;;;;;351330;28;913;-66
2022/10/25 00:29:42;;;;;;;;;;;;;;;;;;351258;28;1257;-65
2022/10/25 00:29:52;;;;;;;;;;;;;;;;;;351236;28;810;-66
2022/10/25 00:30:03;;;;;;;;;;;;;;;;;;351357;28;900;-65
2022/10/25 00:30:14;;;;;;;;;;;;;;;;;;351259;28;1043;-66
2022/10/25 00:30:24;;;;;;;;;;;;;;;;;;351319;28;868;-66
2022/10/25 00:30:34;;;;;;;;;;;;;;;;;;351310;28;864;-66
2022/10/25 00:30:44;;;;;;;;;;;;;;;;;;351339;28;844;-66
2022/10/25 00:30:58;;;;;;;;;;;;;;;;;;351250;28;974;-66
2022/10/25 00:31:11;;;;;;;;;;;;;;;;;;351323;28;1011;-66
2022/10/25 00:31:21;;;;;;;;;;;;;;;;;;351160;28;1249;-66
2022/10/25 00:31:32;;;;;;;;;;;;;;;;;;351312;28;996;-66
2022/10/25 00:31:42;;;;;;;;;;;;;;;;;;351288;28;829;-65
2022/10/25 00:31:52;;;;;;;;;;;;;;;;;;351369;28;975;-66
2022/10/25 00:32:02;;;;;;;;;;;;;;;;;;351299;28;940;-67
2022/10/25 00:32:12;;;;;;;;;;;;;;;;;;351340;28;773;-66
2022/10/25 00:32:23;;;;;;;;;;;;;;;;;;351290;28;916;-66
2022/10/25 00:32:33;;;;;;;;;;;;;;;;;;351360;28;952;-66
2022/10/25 00:32:43;;;;;;;;;;;;;;;;;;351324;28;873;-66
2022/10/25 00:32:54;;;;;;;;;;;;;;;;;;351363;28;974;-66
2022/10/25 00:33:04;;;;;;;;;;;;;;;;;;351134;28;1265;-66
2022/10/25 00:33:14;;;;;;;;;;;;;;;;;;351313;28;964;-66
2022/10/25 00:33:24;;;;;;;;;;;;;;;;;;351273;28;955;-66
2022/10/25 00:33:35;;;;;;;;;;;;;;;;;;351349;28;848;-66
2022/10/25 00:33:45;;;;;;;;;;;;;;;;;;351302;28;1019;-67
2022/10/25 00:33:56;;;;;;;;;;;;;;;;;;351330;28;928;-66
2022/10/25 00:34:06;;;;;;;;;;;;;;;;;;351272;28;976;-66
2022/10/25 00:34:16;;;;;;;;;;;;;;;;;;351298;28;848;-66
2022/10/25 00:34:26;;;;;;;;;;;;;;;;;;351391;28;900;-67
2022/10/25 00:34:38;;;;;;;;;;;;;;;;;;351288;28;900;-66
2022/10/25 00:34:49;;;;;;;;;;;;;;;;;;351317;28;996;-66
2022/10/25 00:34:59;;;;;;;;;;;;;;;;;;351399;28;845;-66
2022/10/25 00:35:09;;;;;;;;;;;;;;;;;;351219;28;928;-66
2022/10/25 00:35:20;;;;;;;;;;;;;;;;;;351363;28;790;-66
2022/10/25 00:35:30;;;;;;;;;;;;;;;;;;351309;28;1059;-66
2022/10/25 00:35:40;;;;;;;;;;;;;;;;;;351252;28;874;-66
2022/10/25 00:35:50;;;;;;;;;;;;;;;;;;351294;28;975;-66
2022/10/25 00:36:04;;;;;;;;;;;;;;;;;;351367;28;776;-66
2022/10/25 00:36:16;;;;;;;;;;;;;;;;;;351326;28;829;-66
2022/10/25 00:36:27;;;;;;;;;;;;;;;;;;351336;28;797;-66
2022/10/25 00:36:37;;;;;;;;;;;;;;;;;;351339;28;959;-66
2022/10/25 00:36:47;;;;;;;;;;;;;;;;;;351236;28;979;-66
2022/10/25 00:36:57;;;;;;;;;;;;;;;;;;351331;28;971;-66
2022/10/25 00:37:07;;;;;;;;;;;;;;;;;;351356;28;837;-66
2022/10/25 00:37:18;;;;;;;;;;;;;;;;;;350393;28;1553;-66
2022/10/25 00:37:28;;;;;;;;;;;;;;;;;;349898;28;1566;-65
2022/10/25 00:37:38;;;;;;;;;;;;;;;;;;350215;28;1359;-66
2022/10/25 00:37:48;;;;;;;;;;;;;;;;;;349546;28;1446;-66
2022/10/25 00:37:59;;;;;;;;;;;;;;;;;;349893;28;1030;-66
2022/10/25 00:38:09;;;;;;;;;;;;;;;;;;349919;28;873;-66
2022/10/25 00:38:20;;;;;;;;;;;;;;;;;;349862;28;972;-66
2022/10/25 00:38:30;;;;;;;;;;;;;;;;;;349884;28;1097;-66
2022/10/25 00:38:41;;;;;;;;;;;;;;;;;;349928;28;975;-66
2022/10/25 00:38:51;;;;;;;;;;;;;;;;;;349868;28;912;-66
2022/10/25 00:39:02;;;;;;;;;;;;;;;;;;349935;28;940;-66
2022/10/25 00:39:12;;;;;;;;;;;;;;;;;;349892;28;889;-66
2022/10/25 00:39:22;;;;;;;;;;;;;;;;;;349714;28;933;-66
2022/10/25 00:39:32;;;;;;;;;;;;;;;;;;350081;28;924;-66
2022/10/25 00:39:44;;;;;;;;;;;;;;;;;;350035;28;1000;-66
2022/10/25 00:39:54;;;;;;;;;;;;;;;;;;350027;28;806;-67
2022/10/25 00:40:04;;;;;;;;;;;;;;;;;;350058;28;853;-66
2022/10/25 00:40:15;;;;;;;;;;;;;;;;;;350044;28;924;-66
2022/10/25 00:40:25;;;;;;;;;;;;;;;;;;350018;28;916;-67
2022/10/25 00:40:35;;;;;;;;;;;;;;;;;;350024;28;817;-66
2022/10/25 00:40:46;;;;;;;;;;;;;;;;;;350089;28;960;-66
2022/10/25 00:40:56;;;;;;;;;;;;;;;;;;350059;28;897;-66
2022/10/25 00:41:06;;;;;;;;;;;;;;;;;;350154;28;1011;-66
2022/10/25 00:41:18;;;;;;;;;;;;;;;;;;350163;28;1059;-66
2022/10/25 00:41:29;;;;;;;;;;;;;;;;;;350173;28;983;-66
2022/10/25 00:41:40;;;;;;;;;;;;;;;;;;350125;28;933;-66
2022/10/25 00:41:50;;;;;;;;;;;;;;;;;;350131;28;837;-66
2022/10/25 00:42:01;;;;;;;;;;;;;;;;;;350222;28;842;-66
2022/10/25 00:42:19;;;;;;;;;;;;;;;;;;350174;28;798;-66
2022/10/25 00:42:29;;;;;;;;;;;;;;;;;;348666;28;1572;-66
2022/10/25 00:42:39;;;;;;;;;;;;;;;;;;348722;28;988;-66
2022/10/25 00:42:49;;;;;;;;;;;;;;;;;;348708;28;774;-66
2022/10/25 00:42:59;;;;;;;;;;;;;;;;;;348727;28;1020;-66
2022/10/25 00:43:10;;;;;;;;;;;;;;;;;;348705;28;929;-66
2022/10/25 00:43:33;;;;;;;;;;;;;;;;;;348746;28;899;-66
2022/10/25 00:43:47;;;;;;;;;;;;;;;;;;348667;28;916;-65
2022/10/25 00:44:16;;;;;;;;;;;;;;;;;;348708;28;979;-66
2022/10/25 00:44:32;;;;;;;;;;;;;;;;;;349490;28;933;-66
2022/10/25 00:44:45;;;;;;;;;;;;;;;;;;350191;28;956;-66
2022/10/25 00:44:56;;;;;;;;;;;;;;;;;;350152;28;912;-66
2022/10/25 00:45:25;;;;;;;;;;;;;;;;;;350126;28;933;-66
2022/10/25 00:45:36;;;;;;;;;;;;;;;;;;349999;28;1324;-67
2022/10/25 00:45:46;;;;;;;;;;;;;;;;;;350192;28;936;-66
2022/10/25 00:45:57;;;;;;;;;;;;;;;;;;350162;28;957;-66
2022/10/25 00:46:12;;;;;;;;;;;;;;;;;;350133;28;995;-66
2022/10/25 00:46:26;;;;;;;;;;;;;;;;;;350184;28;1008;-66
2022/10/25 00:46:36;;;;;;;;;;;;;;;;;;350206;28;920;-66
2022/10/25 00:46:46;;;;;;;;;;;;;;;;;;350173;28;909;-66
2022/10/25 00:46:57;;;;;;;;;;;;;;;;;;350185;28;996;-66
2022/10/25 00:47:19;;;;;;;;;;;;;;;;;;350154;28;921;-66
2022/10/25 00:47:35;;;;;;;;;;;;;;;;;;350134;28;1906;-66
2022/10/25 00:47:47;;;;;;;;;;;;;;;;;;350027;28;1023;-66
2022/10/25 00:48:03;;;;;;;;;;;;;;;;;;350097;28;921;-66
2022/10/25 00:48:14;;;;;;;;;;;;;;;;;;350095;28;1094;-66
2022/10/25 00:48:24;;;;;;;;;;;;;;;;;;350212;28;1065;-66
2022/10/25 00:48:35;;;;;;;;;;;;;;;;;;350170;28;992;-66
2022/10/25 00:48:52;;;;;;;;;;;;;;;;;;350139;28;928;-66
2022/10/25 00:49:02;;;;;;;;;;;;;;;;;;350162;28;964;-66
2022/10/25 00:49:18;;;;;;;;;;;;;;;;;;350193;28;932;-66
2022/10/25 00:49:28;;;;;;;;;;;;;;;;;;351065;28;1293;-66
2022/10/25 00:49:40;;;;;;;;;;;;;;;;;;351585;28;1040;-66
2022/10/25 00:49:55;;;;;;;;;;;;;;;;;;351577;28;944;-66
2022/10/25 00:50:28;;;;;;;;;;;;;;;;;;351596;28;967;-66
2022/10/25 00:50:48;;;;;;;;;;;;;;;;;;347276;28;999;-66
2022/10/25 00:50:58;;;;;;;;;;;;;;;;;;351448;28;1075;-66
2022/10/25 00:51:08;;;;;;;;;;;;;;;;;;351607;28;960;-67
2022/10/25 00:51:20;;;;;;;;;;;;;;;;;;351550;28;1219;-66
2022/10/25 00:51:36;;;;;;;;;;;;;;;;;;351619;28;871;-66
2022/10/25 00:51:49;;;;;;;;;;;;;;;;;;351551;28;968;-66
2022/10/25 00:52:01;;;;;;;;;;;;;;;;;;351573;28;1072;-65
2022/10/25 00:52:12;;;;;;;;;;;;;;;;;;350481;28;1694;-66
2022/10/25 00:52:22;;;;;;;;;;;;;;;;;;351574;28;1022;-66
2022/10/25 00:52:34;;;;;;;;;;;;;;;;;;350608;28;1972;-66
2022/10/25 00:52:46;;;;;;;;;;;;;;;;;;350153;28;960;-66
2022/10/25 00:53:01;;;;;;;;;;;;;;;;;;350210;28;917;-66
2022/10/25 00:53:13;;;;;;;;;;;;;;;;;;350190;28;999;-67
2022/10/25 00:53:26;;;;;;;;;;;;;;;;;;350173;28;1023;-66
2022/10/25 00:53:36;;;;;;;;;;;;;;;;;;350145;28;980;-66
2022/10/25 00:53:47;;;;;;;;;;;;;;;;;;350145;28;956;-65
2022/10/25 00:53:57;;;;;;;;;;;;;;;;;;350113;28;1108;-66
2022/10/25 00:54:09;;;;;;;;;;;;;;;;;;350204;28;968;-66
2022/10/25 00:54:22;;;;;;;;;;;;;;;;;;350160;28;1022;-66
2022/10/25 00:54:35;;;;;;;;;;;;;;;;;;350043;28;1973;-66
2022/10/25 00:54:47;;;;;;;;;;;;;;;;;;353002;28;932;-66
2022/10/25 00:54:58;;;;;;;;;;;;;;;;;;352961;28;979;-66
2022/10/25 00:55:10;;;;;;;;;;;;;;;;;;352918;28;991;-66
2022/10/25 00:55:23;;;;;;;;;;;;;;;;;;353009;28;838;-66
2022/10/25 00:55:34;;;;;;;;;;;;;;;;;;352975;28;964;-66
2022/10/25 00:55:47;;;;;;;;;;;;;;;;;;352928;28;968;-66
2022/10/25 00:56:02;;;;;;;;;;;;;;;;;;352927;28;892;-66
2022/10/25 00:56:18;;;;;;;;;;;;;;;;;;352950;28;982;-65
2022/10/25 00:56:30;;;;;;;;;;;;;;;;;;350969;28;1976;-65
2022/10/25 00:56:42;;;;;;;;;;;;;;;;;;352998;28;976;-66
2022/10/25 00:56:53;;;;;;;;;;;;;;;;;;353037;28;825;-65
2022/10/25 00:57:09;;;;;;;;;;;;;;;;;;352912;28;1027;-66
2022/10/25 00:57:39;;;;;;;;;;;;;;;;;;352956;28;967;-65
2022/10/25 00:57:52;;;;;;;;;;;;;;;;;;352248;28;1068;-66
2022/10/25 00:58:05;;;;;;;;;;;;;;;;;;352973;28;935;-66
2022/10/25 00:58:21;;;;;;;;;;;;;;;;;;352962;28;944;-65
2022/10/25 00:58:34;;;;;;;;;;;;;;;;;;352967;28;1003;-66
2022/10/25 00:58:47;;;;;;;;;;;;;;;;;;352935;28;960;-66
2022/10/25 00:59:00;;;;;;;;;;;;;;;;;;353002;28;936;-66
2022/10/25 00:59:13;;;;;;;;;;;;;;;;;;352899;28;928;-66
2022/10/25 00:59:25;;;;;;;;;;;;;;;;;;352948;28;1007;-66
2022/10/25 00:59:36;;;;;;;;;;;;;;;;;;352966;28;924;-66
2022/10/25 00:59:47;;;;;;;;;;;;;;;;;;352981;28;916;-66
2022/10/25 00:59:58;;;;;;;;;;;;;;;;;;352889;28;921;-65
2022/10/25 01:00:09;;;;;;;;;;;;;;;;;;352915;28;778;-66
2022/10/25 01:00:19;;;;;;;;;;;;;;;;;;352967;28;774;-66
2022/10/25 01:00:29;;;;;;;;;;;;;;;;;;352942;28;1020;-66
2022/10/25 01:00:39;;;;;;;;;;;;;;;;;;352844;28;883;-66
2022/10/25 01:00:50;;;;;;;;;;;;;;;;;;352985;28;912;-66
2022/10/25 01:01:02;;;;;;;;;;;;;;;;;;351897;28;1968;-66
2022/10/25 01:01:14;;;;;;;;;;;;;;;;;;350179;28;813;-66
2022/10/25 01:01:24;;;;;;;;;;;;;;;;;;350120;28;928;-66
2022/10/25 01:01:35;;;;;;;;;;;;;;;;;;350181;28;932;-65
2022/10/25 01:01:46;;;;;;;;;;;;;;;;;;350159;28;916;-66
2022/10/25 01:01:56;;;;;;;;;;;;;;;;;;350133;28;956;-66
2022/10/25 01:02:07;;;;;;;;;;;;;;;;;;350117;28;1003;-66
2022/10/25 01:02:18;;;;;;;;;;;;;;;;;;350042;28;1016;-66
2022/10/25 01:02:29;;;;;;;;;;;;;;;;;;350189;28;863;-66
2022/10/25 01:02:39;;;;;;;;;;;;;;;;;;350160;28;932;-66
2022/10/25 01:02:49;;;;;;;;;;;;;;;;;;350130;28;885;-66
2022/10/25 01:03:00;;;;;;;;;;;;;;;;;;350210;28;908;-66
2022/10/25 01:03:11;;;;;;;;;;;;;;;;;;350158;28;933;-66
2022/10/25 01:03:22;;;;;;;;;;;;;;;;;;350163;28;999;-66
2022/10/25 01:03:34;;;;;;;;;;;;;;;;;;350150;28;896;-66
2022/10/25 01:03:47;;;;;;;;;;;;;;;;;;350182;28;940;-66
2022/10/25 01:03:59;;;;;;;;;;;;;;;;;;350177;28;925;-66
2022/10/25 01:04:11;;;;;;;;;;;;;;;;;;350418;28;1704;-66
2022/10/25 01:04:24;;;;;;;;;;;;;;;;;;351450;28;932;-66
2022/10/25 01:04:35;;;;;;;;;;;;;;;;;;351566;28;936;-66
2022/10/25 01:04:45;;;;;;;;;;;;;;;;;;351600;28;963;-66
2022/10/25 01:04:55;;;;;;;;;;;;;;;;;;351580;28;853;-66
2022/10/25 01:05:07;;;;;;;;;;;;;;;;;;351444;28;1051;-66
2022/10/25 01:05:17;;;;;;;;;;;;;;;;;;351517;28;991;-66
2022/10/25 01:05:27;;;;;;;;;;;;;;;;;;351594;28;909;-66
2022/10/25 01:05:38;;;;;;;;;;;;;;;;;;351586;28;869;-66
2022/10/25 01:05:49;;;;;;;;;;;;;;;;;;351547;28;959;-66
2022/10/25 01:06:00;;;;;;;;;;;;;;;;;;351492;28;1057;-66
2022/10/25 01:06:22;;;;;;;;;;;;;;;;;;351586;28;1027;-66
2022/10/25 01:06:36;;;;;;;;;;;;;;;;;;351468;28;1062;-66
2022/10/25 01:06:47;;;;;;;;;;;;;;;;;;351511;28;1004;-66
2022/10/25 01:06:59;;;;;;;;;;;;;;;;;;351586;28;940;-66
2022/10/25 01:07:10;;;;;;;;;;;;;;;;;;351541;28;975;-66
2022/10/25 01:07:20;;;;;;;;;;;;;;;;;;351571;28;861;-66
2022/10/25 01:07:30;;;;;;;;;;;;;;;;;;351488;28;1909;-66
2022/10/25 01:07:40;;;;;;;;;;;;;;;;;;351573;28;853;-66
2022/10/25 01:07:50;;;;;;;;;;;;;;;;;;351499;28;1023;-66
2022/10/25 01:08:01;;;;;;;;;;;;;;;;;;351572;28;896;-66
2022/10/25 01:08:12;;;;;;;;;;;;;;;;;;351592;28;877;-66
2022/10/25 01:08:23;;;;;;;;;;;;;;;;;;351529;28;925;-66
2022/10/25 01:08:33;;;;;;;;;;;;;;;;;;351489;28;932;-66
2022/10/25 01:08:45;;;;;;;;;;;;;;;;;;351583;28;837;-66
2022/10/25 01:08:56;;;;;;;;;;;;;;;;;;351606;28;924;-66
2022/10/25 01:09:08;;;;;;;;;;;;;;;;;;351579;28;840;-66
2022/10/25 01:09:20;;;;;;;;;;;;;;;;;;351552;28;920;-66
2022/10/25 01:09:31;;;;;;;;;;;;;;;;;;351535;28;924;-66
2022/10/25 01:09:42;;;;;;;;;;;;;;;;;;351587;28;864;-66
2022/10/25 01:09:52;;;;;;;;;;;;;;;;;;351584;28;856;-66
2022/10/25 01:10:03;;;;;;;;;;;;;;;;;;351541;28;861;-66
2022/10/25 01:10:14;;;;;;;;;;;;;;;;;;351585;28;928;-66
2022/10/25 01:10:24;;;;;;;;;;;;;;;;;;351553;28;979;-66
2022/10/25 01:10:35;;;;;;;;;;;;;;;;;;351488;28;913;-66
2022/10/25 01:10:46;;;;;;;;;;;;;;;;;;351578;28;1023;-66
2022/10/25 01:10:56;;;;;;;;;;;;;;;;;;351572;28;1076;-66
2022/10/25 01:11:07;;;;;;;;;;;;;;;;;;351567;28;869;-66
2022/10/25 01:11:18;;;;;;;;;;;;;;;;;;350859;28;1398;-66
2022/10/25 01:11:28;;;;;;;;;;;;;;;;;;351224;28;1495;-66
2022/10/25 01:11:38;;;;;;;;;;;;;;;;;;349907;28;1465;-66
2022/10/25 01:11:49;;;;;;;;;;;;;;;;;;350100;28;1376;-66
2022/10/25 01:11:59;;;;;;;;;;;;;;;;;;350219;28;1308;-65
2022/10/25 01:12:09;;;;;;;;;;;;;;;;;;351552;28;972;-66
2022/10/25 01:12:19;;;;;;;;;;;;;;;;;;351515;28;949;-66
2022/10/25 01:12:29;;;;;;;;;;;;;;;;;;351473;28;849;-66
2022/10/25 01:12:39;;;;;;;;;;;;;;;;;;351501;28;889;-66
2022/10/25 01:12:50;;;;;;;;;;;;;;;;;;351583;28;928;-66
2022/10/25 01:13:00;;;;;;;;;;;;;;;;;;351508;28;921;-66
2022/10/25 01:13:11;;;;;;;;;;;;;;;;;;351549;28;1003;-66
2022/10/25 01:13:21;;;;;;;;;;;;;;;;;;350786;28;1327;-66
2022/10/25 01:13:31;;;;;;;;;;;;;;;;;;351508;28;810;-66
2022/10/25 01:13:42;;;;;;;;;;;;;;;;;;349493;28;1588;-66
2022/10/25 01:13:52;;;;;;;;;;;;;;;;;;350120;28;861;-66
2022/10/25 01:14:03;;;;;;;;;;;;;;;;;;350169;28;916;-66
2022/10/25 01:14:14;;;;;;;;;;;;;;;;;;350101;28;1722;-66
2022/10/25 01:14:25;;;;;;;;;;;;;;;;;;349759;28;1548;-66
2022/10/25 01:14:37;;;;;;;;;;;;;;;;;;349829;28;1760;-66
2022/10/25 01:14:48;;;;;;;;;;;;;;;;;;349922;28;1418;-66
2022/10/25 01:14:59;;;;;;;;;;;;;;;;;;350117;28;1130;-66
2022/10/25 01:15:09;;;;;;;;;;;;;;;;;;350147;28;979;-66
2022/10/25 01:15:23;;;;;;;;;;;;;;;;;;350187;28;917;-66
2022/10/25 01:15:48;;;;;;;;;;;;;;;;;;350116;28;1017;-66
2022/10/25 01:16:02;;;;;;;;;;;;;;;;;;350135;28;929;-66
2022/10/25 01:16:31;;;;;;;;;;;;;;;;;;350158;28;822;-66
2022/10/25 01:16:59;;;;;;;;;;;;;;;;;;350079;28;964;-66
2022/10/25 01:17:18;;;;;;;;;;;;;;;;;;350148;28;1011;-66
2022/10/25 01:17:28;;;;;;;;;;;;;;;;;;350178;28;1156;-66
2022/10/25 01:17:49;;;;;;;;;;;;;;;;;;350145;28;829;-66
2022/10/25 01:18:07;;;;;;;;;;;;;;;;;;350097;28;948;-66
2022/10/25 01:18:21;;;;;;;;;;;;;;;;;;350143;28;956;-66
2022/10/25 01:18:42;;;;;;;;;;;;;;;;;;350161;28;987;-66
2022/10/25 01:18:57;;;;;;;;;;;;;;;;;;350015;28;987;-66
2022/10/25 01:19:23;;;;;;;;;;;;;;;;;;350152;28;1027;-66
2022/10/25 01:19:41;;;;;;;;;;;;;;;;;;350068;28;1032;-65
2022/10/25 01:20:10;;;;;;;;;;;;;;;;;;350164;28;932;-65
2022/10/25 01:20:35;;;;;;;;;;;;;;;;;;350083;28;921;-66
2022/10/25 01:21:09;;;;;;;;;;;;;;;;;;350147;28;865;-66
2022/10/25 01:21:30;;;;;;;;;;;;;;;;;;350142;28;1016;-66
2022/10/25 01:21:44;;;;;;;;;;;;;;;;;;350148;28;829;-66
2022/10/25 01:22:03;;;;;;;;;;;;;;;;;;350104;28;916;-66
2022/10/25 01:22:27;;;;;;;;;;;;;;;;;;350137;28;936;-66
2022/10/25 01:22:44;;;;;;;;;;;;;;;;;;350857;28;2052;-66
2022/10/25 01:23:13;;;;;;;;;;;;;;;;;;352897;28;1003;-66
2022/10/25 01:23:32;;;;;;;;;;;;;;;;;;352941;28;913;-66
2022/10/25 01:23:45;;;;;;;;;;;;;;;;;;352917;28;940;-66
2022/10/25 01:24:14;;;;;;;;;;;;;;;;;;352933;28;956;-66
2022/10/25 01:24:53;;;;;;;;;;;;;;;;;;352887;28;940;-66
2022/10/25 01:25:22;;;;;;;;;;;;;;;;;;352902;28;912;-65
2022/10/25 01:25:42;;;;;;;;;;;;;;;;;;352903;28;794;-66
2022/10/25 01:26:11;;;;;;;;;;;;;;;;;;352938;28;928;-66
2022/10/25 01:26:32;;;;;;;;;;;;;;;;;;352862;28;909;-66